• Join FlightAware (Why Join?)
  • Login
  • US Flag 
06:56PM EDT


 

Airport Tracker/Info


-or-


 

Live Flight TrackerFlight Track Log ✈ N244A ✈ 31-Oct-2013 ✈ KPBI - KBED

Flight Track Log - Related Links

Times and Time Zones

All times are in EDT time to prevent confusion due to time zone crossing. See the N244A flight status page for this flight to view local times or setup timezone preferences in your user account.

Time Position Orientation Groundspeed Altitude Reporting Facility
EDT Latitude Longitude Course Direction KTS MPH feet Rate Location/Type
07:54AM 26.7569 -79.9928 334° Northwest 256 295 5,700  Level Miami Center
07:55AM 26.8125 -80.0314 328° Northwest 256 295 7,700 2,280 Climbing Miami Center
07:56AM 26.8358 -80.1136 288° West 261 300 10,300 2,100 Climbing Miami Center
07:57AM 26.8458 -80.2233 276° West 302 348 11,900 900 Climbing Miami Center
07:58AM 27.2862 -79.8178 326° Northwest  Level Estimated
07:58AM 26.8744 -80.3311 287° West 347 399 12,200  Level Miami Center
07:59AM 27.3866 -79.7712 334° Northwest  Level Estimated
07:59AM 26.9369 -80.4239 307° West 371 427 14,500  Level Miami Center
08:00AM 27.0169 -80.4847 326° Northwest 380 437 16,600 2,040 Climbing Miami Center
08:01AM 27.1136 -80.5414 332° Northwest 380 437 18,600 1,680 Climbing Miami Center
08:02AM 27.2125 -80.5911 336° Northwest 380 437 20,000 1,680 Climbing Miami Center
08:03AM 27.3114 -80.6481 333° Northwest 391 450 22,000 1,560 Climbing Miami Center
08:04AM 27.4142 -80.7053 334° Northwest 396 456 23,200 960 Climbing Miami Center
08:05AM 27.5233 -80.7581 337° Northwest 409 471 24,000 1,320 Climbing Miami Center
08:06AM 27.6325 -80.8133 336° Northwest 425 489 25,900 1,380 Climbing Miami Center
08:07AM 27.7392 -80.8806 331° Northwest 425 489 26,800 1,200 Climbing Miami Center
08:08AM 27.8461 -80.9453 332° Northwest 431 496 28,300 1,440 Climbing Miami Center
08:09AM 27.9550 -81.0008 336° Northwest 426 490 29,700 1,440 Climbing Miami Center
08:10AM 28.0692 -81.0239 350° North 417 480 31,200 1,740 Climbing Miami Center
08:11AM 28.1811 -81.0444 351° North 412 474 33,200 1,380 Climbing Miami Center
08:12AM 28.2869 -81.0672 349° North 400 460 34,000 600 Climbing Miami Center
08:13AM 28.3989 -81.0928 349° North 400 460 34,400 960 Climbing Miami Center
08:14AM 28.5153 -81.1183 349° North 408 470 36,000 1,560 Climbing Jacksonville Center
08:15AM 28.6181 -81.1425 348° North 403 464 37,700 1,020 Climbing Jacksonville Center
08:16AM 28.7183 -81.1644 349° North 384 442 38,100 540 Climbing Jacksonville Center
08:17AM 28.8211 -81.1839 351° North 371 427 38,800 360 Climbing Jacksonville Center
08:18AM 28.9236 -81.2036 350° North 371 427 38,900 60 Climbing Jacksonville Center
08:19AM 29.0281 -81.2256 350° North 376 433 39,000  Climbing Jacksonville Center
08:20AM 29.1369 -81.2497 349° North 381 438 39,000  Level Jacksonville Center
08:21AM 29.2478 -81.2719 350° North 387 445 39,000  Level Jacksonville Center
08:22AM 29.3608 -81.2961 349° North 400 460 39,000  Level Jacksonville Center
08:23AM 29.4719 -81.3231 348° North 405 466 39,000  Level Jacksonville Center
08:24AM 29.5911 -81.3472 350° North 405 466 39,000  Level Jacksonville Center
08:25AM 29.7022 -81.3742 348° North 405 466 39,000  Level Jacksonville Center
08:26AM 29.8153 -81.3964 350° North 405 466 39,000  Level Jacksonville Center
08:27AM 29.9261 -81.4186 350° North 405 466 39,000  Level Jacksonville Center
08:28AM 30.0392 -81.4458 348° North 405 466 39,000  Level Jacksonville Center
08:29AM 30.1500 -81.4681 350° North 405 466 39,000  Level Jacksonville Center
08:30AM 30.2650 -81.4928 349° North 410 472 39,000  Level Jacksonville Center
08:31AM 30.3800 -81.4936 360° North 410 472 39,000  Level Jacksonville Center
08:32AM 30.4964 -81.4558 16° North 410 472 39,000  Level Jacksonville Center
08:33AM 30.6108 -81.4203 15° North 415 478 39,000  Level Jacksonville Center
08:34AM 30.7169 -81.3822 17° North 425 489 39,000  Level Jacksonville Center
08:35AM 30.8272 -81.3442 17° North 425 489 39,000  Level Jacksonville Center
08:36AM 30.9436 -81.3061 16° North 425 489 39,000  Level Jacksonville Center
08:37AM 31.0578 -81.2678 16° North 425 489 39,000  Level Jacksonville Center
08:38AM 31.1722 -81.2294 16° North 420 483 39,000  Level Jacksonville Center
08:39AM 31.2844 -81.1908 16° North 420 483 39,000  Level Jacksonville Center
08:40AM 31.4025 -81.1206 27° Northeast 420 483 39,000  Level Jacksonville Center
08:41AM 31.4956 -81.0531 32° Northeast 442 509 39,000  Level Jacksonville Center
08:42AM 31.6133 -80.9703 31° Northeast 442 509 39,000  Level Jacksonville Center
08:43AM 31.7167 -80.8972 31° Northeast 442 509 39,000  Level Jacksonville Center
08:44AM 31.8114 -80.8267 32° Northeast 437 503 39,000  Level Jacksonville Center
08:45AM 31.9269 -80.7433 31° Northeast 437 503 39,000  Level Jacksonville Center
08:46AM 32.0197 -80.6775 31° Northeast 437 503 39,000  Level Jacksonville Center
08:47AM 32.1372 -80.5936 31° Northeast 437 503 39,000 -60 Level Jacksonville Center
08:48AM 32.2383 -80.5200 32° Northeast 437 503 38,900 -60 Descending Jacksonville Center
08:49AM 32.3433 -80.4433 32° Northeast 437 503 38,900  Level Jacksonville Center
08:50AM 32.4503 -80.3642 32° Northeast 437 503 39,000  Climbing Jacksonville Center
08:51AM 32.5531 -80.2900 31° Northeast 437 503 38,900 -60 Descending Jacksonville Center
08:52AM 32.6558 -80.2131 32° Northeast 437 503 38,900  Level Jacksonville Center
08:53AM 32.7586 -80.1358 32° Northeast 437 503 38,900  Level Jacksonville Center
08:54AM 32.8653 -80.0533 33° Northeast 442 509 38,900  Level Jacksonville Center
08:55AM 32.9697 -79.9683 34° Northeast 448 516 38,900  Level Jacksonville Center
08:56AM 33.0575 -79.8789 40° Northeast 462 532 38,900  Level Jacksonville Center
08:57AM 33.1553 -79.7836 39° Northeast 462 532 38,900  Level Jacksonville Center
08:58AM 33.2553 -79.6858 39° Northeast 457 526 38,900  Level Jacksonville Center
08:59AM 33.3528 -79.5903 39° Northeast 457 526 38,900  Level Jacksonville Center
09:00AM 33.4528 -79.4969 38° Northeast 457 526 38,900  Level Jacksonville Center
09:01AM 33.5503 -79.3986 40° Northeast 457 526 38,900  Level Jacksonville Center
09:02AM 33.6456 -79.3025 40° Northeast 457 526 38,900  Level Jacksonville Center
09:03AM 33.7408 -79.2111 39° Northeast 452 520 38,900  Level Jacksonville Center
09:04AM 33.8403 -79.1144 39° Northeast 446 513 38,900  Level Jacksonville Center
09:06AM 34.0208 -78.9342 40° Northeast 467 537 38,900  Level Washington Center
09:07AM 34.1194 -78.8378 39° Northeast 462 532 38,900  Level Washington Center
09:08AM 34.2203 -78.7364 40° Northeast 462 532 38,900  Level Washington Center
09:09AM 34.3167 -78.6419 39° Northeast 462 532 38,900  Level Washington Center
09:10AM 34.4150 -78.5425 40° Northeast 462 532 38,900  Level Washington Center
09:11AM 34.5175 -78.4528 36° Northeast 462 532 39,000  Climbing Washington Center
09:12AM 34.6194 -78.3756 32° Northeast 449 517 38,900 -60 Descending Washington Center
09:13AM 34.7233 -78.2933 33° Northeast 442 509 38,900  Level Washington Center
09:14AM 34.8342 -78.1933 37° Northeast 447 514 39,000  Climbing Washington Center
09:15AM 34.9383 -78.1078 34° Northeast 447 514 39,000  Level Washington Center
09:16AM 35.0422 -78.0247 33° Northeast 452 520 39,000  Level Washington Center
09:17AM 35.1483 -77.9367 34° Northeast 452 520 39,000  Level Washington Center
09:18AM 35.2542 -77.8533 33° Northeast 452 520 39,000  Level Washington Center
09:19AM 35.3603 -77.7644 34° Northeast 452 520 39,000  Level Washington Center
09:20AM 35.4639 -77.6806 33° Northeast 447 514 39,000  Level Washington Center
09:21AM 35.5719 -77.5942 33° Northeast 447 514 39,000  Level Washington Center
09:22AM 35.6775 -77.5072 34° Northeast 447 514 39,000  Level Washington Center
09:23AM 35.7833 -77.4203 34° Northeast 447 514 39,000  Level Washington Center
09:24AM 35.8889 -77.3328 34° Northeast 447 514 39,000  Level Washington Center
09:25AM 35.9944 -77.2428 35° Northeast 447 514 39,000  Level Washington Center
09:26AM 36.1000 -77.1575 33° Northeast 447 514 39,000 -60 Level Washington Center
09:27AM 36.1992 -77.0719 35° Northeast 442 509 38,900  Descending Washington Center
09:28AM 36.3044 -76.9839 34° Northeast 442 509 39,000  Climbing Washington Center
09:29AM 36.4119 -76.8953 34° Northeast 449 517 38,900 -60 Descending Washington Center
09:30AM 36.5172 -76.8067 34° Northeast 449 517 38,900  Level Washington Center
09:31AM 36.6222 -76.7150 35° Northeast 449 517 38,900  Level Washington Center
09:32AM 36.7275 -76.6258 34° Northeast 449 517 39,000  Climbing Washington Center
09:33AM 36.8303 -76.5364 35° Northeast 449 517 39,000  Level Washington Center
09:34AM 36.9250 -76.4519 35° Northeast 454 522 39,000  Level Washington Center
09:35AM 37.0297 -76.3594 35° Northeast 454 522 39,000  Level Washington Center
09:36AM 37.1347 -76.2692 34° Northeast 454 522 39,000  Level Washington Center
09:37AM 37.2414 -76.1789 34° Northeast 459 528 39,000 -60 Level Washington Center
09:38AM 37.3608 -76.0831 33° Northeast 459 528 38,900  Descending Washington Center
09:39AM 37.4656 -75.9894 35° Northeast 459 528 39,000  Climbing Washington Center
09:40AM 37.5722 -75.9011 33° Northeast 454 522 38,900 -60 Descending Washington Center
09:41AM 37.6767 -75.8044 36° Northeast 454 522 38,900  Level Washington Center
09:42AM 37.7831 -75.7128 34° Northeast 454 522 39,000  Climbing Washington Center
09:43AM 37.8894 -75.6208 34° Northeast 454 522 38,900  Descending Washington Center
09:44AM 37.9708 -75.5444 36° Northeast 454 522 39,000  Climbing Washington Center
09:45AM 38.0981 -75.4361 34° Northeast 454 522 38,900 -60 Descending Washington Center
09:46AM 38.1939 -75.3778 26° Northeast 444 511 38,900  Level Washington Center
09:47AM 38.3144 -75.3033 26° Northeast 433 498 38,900  Level Washington Center
09:48AM 38.4250 -75.2339 26° Northeast 433 498 38,900  Level Washington Center
09:49AM 38.5350 -75.1617 27° Northeast 433 498 38,900  Level Washington Center
09:50AM 38.6433 -75.0919 27° Northeast 428 493 38,900  Level Washington Center
09:51AM 38.7514 -75.0086 31° Northeast 433 498 38,900  Level Washington Center
09:52AM 38.8486 -74.8961 42° Northeast 452 520 39,000  Climbing Washington Center
09:53AM 38.9439 -74.7803 43° Northeast 457 526 39,000  Level Washington Center
09:54AM 39.0367 -74.6669 43° Northeast 457 526 39,000 -60 Level Washington Center
09:55AM 39.1297 -74.5533 43° Northeast 457 526 38,900 -60 Descending Washington Center
09:56AM 39.2267 -74.4422 42° Northeast 457 526 38,900  Level Washington Center
09:57AM 39.3192 -74.3281 44° Northeast 457 526 38,900  Level Washington Center
09:58AM 39.4158 -74.2108 43° Northeast 468 539 38,900  Level Washington Center
10:01AM 39.6347 -73.9383 44° Northeast 468 539 38,900  Level Boston Center
10:02AM 39.7269 -73.8236 44° Northeast 464 534 39,000  Climbing Boston Center
10:03AM 39.8208 -73.7083 43° Northeast 466 536 38,900 -180 Descending Boston Center
10:04AM 39.9136 -73.5908 44° Northeast 469 540 38,700 -900 Descending Boston Center
10:05AM 40.0203 -73.4586 43° Northeast 479 551 37,100 -1,440 Descending Boston Center
10:07AM 40.2250 -73.2156 42° Northeast 476 548 34,300 -1,320 Descending Boston Center
10:08AM 40.3350 -73.1253 32° Northeast 469 540 33,200 -1,140 Descending Boston Center
10:09AM 40.4425 -73.0294 34° Northeast 470 541 32,100 -1,320 Descending Boston Center
10:10AM 40.5511 -72.9272 36° Northeast 480 552 30,500 -1,740 Descending Boston Center
10:11AM 40.6619 -72.8267 35° Northeast 485 558 28,600 -1,980 Descending Boston Center
10:12AM 40.7831 -72.7181 34° Northeast 487 560 26,500 -2,040 Descending Boston Center
10:13AM 40.8983 -72.6144 34° Northeast 499 574 24,500 -1,980 Descending Boston Center
10:14AM 41.0094 -72.5058 36° Northeast 496 571 22,600 -1,920 Descending Boston Center
10:15AM 41.1211 -72.4053 34° Northeast 487 560 20,700 -1,800 Descending Boston Center
10:16AM 41.2433 -72.2911 35° Northeast 472 543 18,900 -840 Descending Boston Center
10:17AM 41.3542 -72.2275 23° Northeast 415 478 19,000 -180 Climbing Boston Center
10:18AM 41.4611 -72.2044 North 394 453 18,600 -720 Descending Boston Center
10:18AM 41.5094 -72.1939 North 398 458 18,000 -1,320 Descending Boston Center
10:19AM 41.5717 -72.1761 12° North 404 465 17,300 -1,980 Descending Boston Center
10:19AM 41.6122 -72.1639 13° North 413 475 16,200 -2,340 Descending Boston Center
10:20AM 41.6844 -72.1422 13° North 413 475 14,900 -2,280 Descending Boston Center
10:20AM 41.6994 -72.1367 15° North 411 473 14,400 -2,580 Descending Boston Center
10:21AM 41.7997 -72.1097 11° North 396 456 12,300 -2,280 Descending Boston Center
10:21AM 41.8064 -72.1078 12° North 387 445 12,100 -1,500 Descending Boston Center
10:22AM 41.8989 -72.0839 11° North 378 435 10,800 -1,620 Descending Boston Center
10:22AM 41.9086 -72.0803 15° North 362 417 10,500 -1,380 Descending Boston Center
10:23AM 41.9992 -72.0572 11° North 343 395 9,500 -1,260 Descending Boston Center
10:23AM 42.0039 -72.0556 15° North 318 366 9,300 -1,320 Descending Boston Center
10:24AM 42.0739 -72.0119 25° Northeast 302 348 8,100 -1,320 Descending Boston Center
10:24AM 42.0781 -72.0064 45° Northeast 305 351 8,000 -1,320 Descending Boston Center
10:25AM 42.1244 -71.9228 53° Northeast 303 349 6,800 -1,320 Descending Boston Center
10:25AM 42.1261 -71.9133 77° East 306 352 6,700 -1,200 Descending Boston Center
10:26AM 42.1669 -71.8219 59° Northeast 297 342 5,600 -840 Descending Boston Center
10:27AM 42.2356 -71.7792 25° Northeast 273 314 5,100 -300 Descending Boston Center
10:28AM 42.3014 -71.7581 13° North 246 283 5,100 -60 Level Boston Center
10:29AM 42.3667 -71.7003 33° Northeast 276 318 5,000 -720 Descending Boston Center
10:30AM 42.4336 -71.6253 40° Northeast 294 338 3,700 -1,080 Descending Boston Center
10:31AM 42.4892 -71.5594 41° Northeast 266 306 2,900 -720 Descending Boston Center
10:32AM 42.5125 -71.4806 68° East 229 264 2,300 -420 Descending Boston Center
10:33AM 42.5167 -71.4000 86° East 189 217 2,100 -120 Descending KA90
10:34AM 42.5667 -71.4000 360° North 192 221 2,100  Level KA90
10:35AM 42.5667 -71.4500 270° West 181 208 2,100  Level KA90
10:37AM 42.5500 -71.5167 251° West 161 185 2,100  Level KA90
10:37AM 42.5333 -71.5500 236° Southwest 154 177 2,100  Level KA90
10:38AM 42.5000 -71.5000 132° Southeast 189 217 2,100  Level KA90
10:40AM 42.4833 -71.4333 109° East 177 204 2,100  Level KA90
10:40AM 42.5000 -71.3833 66° East 210 242 2,100  Level KA90
10:41AM 42.5500 -71.3667 14° North 212 244 2,100  Level KA90
10:42AM 42.5833 -71.4167 312° West 181 208 2,100  Level KA90
10:43AM 42.5833 -71.4833 270° West 183 211 2,100  Level KA90
10:44AM 42.5833 -71.5333 270° West 158 182 2,100  Level KA90
10:45AM 42.5500 -71.5667 216° Southwest 158 182 2,100  Level KA90
10:46AM 42.5000 -71.5333 154° Southeast 193 222 2,100  Level KA90
10:47AM 42.4833 -71.4500 105° East 183 211 2,100 -240 Level KA90
10:48AM 42.4833 -71.4000 90° East 161 185 1,700 -600 Descending KA90
10:49AM 42.4833 -71.3333 90° East 161 185 900 -840 Descending KA90